Weather at Gravvold Airfield

Public forecast

Using degrees Celsius for public forecast. Weather courtesy of forecast.io.

Closest aviation weather report (METAR) to Gravvold Airfield

Closest report is Kristiansund Airport, Kvernberget, 24.4 nm (45.2 km) W.

2024/05/21 11:50 (retrieved 40 minutes ago)

ENKB 211150Z 27007KT 240V300 CAVOK 20/03 Q1020 RMK WIND 745FT 30006KT

Closest aviation forecast (TAF) to Gravvold Airfield

Closest forecast is Ørland Airport, 45.5 nm (84.2 km) NNE.

2024/05/21 12:36 (retrieved 0 seconds ago)

TAF ENOL 211100Z 2112/2212 34008KT CAVOK BECMG 2203/2206 13010KT